sensor_id;sensor_type;location;lat;lon;timestamp;P1;durP1;ratioP1;P2;durP2;ratioP2
34234;SDS011;20500;49.856;20.290;2024-03-08T00:01:09;32.50;;;21.80;;
34234;SDS011;20500;49.856;20.290;2024-03-08T00:04:15;35.50;;;22.00;;
34234;SDS011;20500;49.856;20.290;2024-03-08T00:07:20;31.80;;;21.00;;
34234;SDS011;20500;49.856;20.290;2024-03-08T00:10:26;29.00;;;19.80;;
34234;SDS011;20500;49.856;20.290;2024-03-08T00:16:37;31.00;;;20.60;;
34234;SDS011;20500;49.856;20.290;2024-03-08T00:19:46;32.30;;;20.40;;
34234;SDS011;20500;49.856;20.290;2024-03-08T00:22:52;31.90;;;20.50;;
34234;SDS011;20500;49.856;20.290;2024-03-08T00:26:01;29.90;;;20.20;;
34234;SDS011;20500;49.856;20.290;2024-03-08T00:32:11;31.50;;;19.90;;
34234;SDS011;20500;49.856;20.290;2024-03-08T00:35:16;31.50;;;20.00;;
34234;SDS011;20500;49.856;20.290;2024-03-08T00:38:22;28.50;;;19.30;;
34234;SDS011;20500;49.856;20.290;2024-03-08T00:41:28;30.40;;;19.80;;
34234;SDS011;20500;49.856;20.290;2024-03-08T00:44:33;28.60;;;20.10;;
34234;SDS011;20500;49.856;20.290;2024-03-08T00:47:39;30.00;;;19.90;;
34234;SDS011;20500;49.856;20.290;2024-03-08T00:50:47;28.70;;;19.90;;
34234;SDS011;20500;49.856;20.290;2024-03-08T00:53:52;22.30;;;15.10;;
34234;SDS011;20500;49.856;20.290;2024-03-08T00:56:58;30.70;;;20.80;;
34234;SDS011;20500;49.856;20.290;2024-03-08T01:00:06;30.60;;;20.30;;
34234;SDS011;20500;49.856;20.290;2024-03-08T01:03:15;28.90;;;19.00;;
34234;SDS011;20500;49.856;20.290;2024-03-08T01:06:20;33.00;;;20.80;;
34234;SDS011;20500;49.856;20.290;2024-03-08T01:09:26;28.20;;;18.60;;
34234;SDS011;20500;49.856;20.290;2024-03-08T01:15:37;26.90;;;17.50;;
34234;SDS011;20500;49.856;20.290;2024-03-08T01:18:44;28.10;;;19.00;;
34234;SDS011;20500;49.856;20.290;2024-03-08T01:21:50;29.30;;;19.00;;
34234;SDS011;20500;49.856;20.290;2024-03-08T01:24:58;30.30;;;20.00;;
34234;SDS011;20500;49.856;20.290;2024-03-08T01:28:04;24.90;;;15.40;;
34234;SDS011;20500;49.856;20.290;2024-03-08T01:34:15;29.30;;;18.90;;
34234;SDS011;20500;49.856;20.290;2024-03-08T01:37:20;29.80;;;19.20;;
34234;SDS011;20500;49.856;20.290;2024-03-08T01:40:25;30.20;;;18.90;;
34234;SDS011;20500;49.856;20.290;2024-03-08T01:46:36;28.10;;;18.40;;
34234;SDS011;20500;49.856;20.290;2024-03-08T01:49:41;29.40;;;19.00;;
34234;SDS011;20500;49.856;20.290;2024-03-08T01:52:47;27.50;;;18.30;;
34234;SDS011;20500;49.856;20.290;2024-03-08T01:55:53;26.90;;;17.10;;
34234;SDS011;20500;49.856;20.290;2024-03-08T01:59:00;27.80;;;18.40;;
34234;SDS011;20500;49.856;20.290;2024-03-08T02:02:07;26.20;;;17.30;;
34234;SDS011;20500;49.856;20.290;2024-03-08T02:05:16;30.90;;;18.70;;
34234;SDS011;20500;49.856;20.290;2024-03-08T02:08:21;27.60;;;18.70;;
34234;SDS011;20500;49.856;20.290;2024-03-08T02:11:27;29.40;;;18.20;;
34234;SDS011;20500;49.856;20.290;2024-03-08T02:14:32;25.80;;;16.90;;
34234;SDS011;20500;49.856;20.290;2024-03-08T02:17:37;27.40;;;18.20;;
34234;SDS011;20500;49.856;20.290;2024-03-08T02:20:43;28.40;;;18.50;;
34234;SDS011;20500;49.856;20.290;2024-03-08T02:23:50;29.20;;;19.30;;
34234;SDS011;20500;49.856;20.290;2024-03-08T02:26:56;28.30;;;18.00;;
34234;SDS011;20500;49.856;20.290;2024-03-08T02:30:02;25.30;;;17.70;;
34234;SDS011;20500;49.856;20.290;2024-03-08T02:33:09;26.40;;;18.30;;
34234;SDS011;20500;49.856;20.290;2024-03-08T02:36:19;27.50;;;18.30;;
34234;SDS011;20500;49.856;20.290;2024-03-08T02:39:25;26.90;;;17.70;;
34234;SDS011;20500;49.856;20.290;2024-03-08T02:42:30;28.90;;;17.70;;
34234;SDS011;20500;49.856;20.290;2024-03-08T02:45:36;29.70;;;17.20;;
34234;SDS011;20500;49.856;20.290;2024-03-08T02:48:41;26.50;;;17.60;;
34234;SDS011;20500;49.856;20.290;2024-03-08T02:51:47;27.70;;;18.30;;
34234;SDS011;20500;49.856;20.290;2024-03-08T02:54:52;24.90;;;17.00;;
34234;SDS011;20500;49.856;20.290;2024-03-08T02:57:57;25.90;;;17.80;;
34234;SDS011;20500;49.856;20.290;2024-03-08T03:01:03;26.40;;;18.10;;
34234;SDS011;20500;49.856;20.290;2024-03-08T03:04:09;28.00;;;18.30;;
34234;SDS011;20500;49.856;20.290;2024-03-08T03:07:14;27.70;;;17.90;;
34234;SDS011;20500;49.856;20.290;2024-03-08T03:10:20;25.60;;;18.30;;
34234;SDS011;20500;49.856;20.290;2024-03-08T03:13:25;26.80;;;18.70;;
34234;SDS011;20500;49.856;20.290;2024-03-08T03:16:32;26.70;;;18.30;;
34234;SDS011;20500;49.856;20.290;2024-03-08T03:19:37;29.80;;;20.00;;
34234;SDS011;20500;49.856;20.290;2024-03-08T03:22:46;27.40;;;17.90;;
34234;SDS011;20500;49.856;20.290;2024-03-08T03:25:54;27.90;;;19.40;;
34234;SDS011;20500;49.856;20.290;2024-03-08T03:29:00;26.30;;;18.30;;
34234;SDS011;20500;49.856;20.290;2024-03-08T03:32:06;27.40;;;17.90;;
34234;SDS011;20500;49.856;20.290;2024-03-08T03:35:12;28.20;;;18.20;;
34234;SDS011;20500;49.856;20.290;2024-03-08T03:38:18;27.70;;;19.20;;
34234;SDS011;20500;49.856;20.290;2024-03-08T03:41:26;29.10;;;18.30;;
34234;SDS011;20500;49.856;20.290;2024-03-08T03:44:31;29.10;;;18.60;;
34234;SDS011;20500;49.856;20.290;2024-03-08T03:47:37;23.70;;;15.60;;
34234;SDS011;20500;49.856;20.290;2024-03-08T03:50:43;28.50;;;18.50;;
34234;SDS011;20500;49.856;20.290;2024-03-08T03:53:48;27.60;;;18.20;;
34234;SDS011;20500;49.856;20.290;2024-03-08T03:56:54;28.10;;;19.40;;
34234;SDS011;20500;49.856;20.290;2024-03-08T03:59:59;27.90;;;18.40;;
34234;SDS011;20500;49.856;20.290;2024-03-08T04:03:06;28.30;;;17.80;;
34234;SDS011;20500;49.856;20.290;2024-03-08T04:06:12;27.50;;;18.00;;
34234;SDS011;20500;49.856;20.290;2024-03-08T04:09:18;26.50;;;17.40;;
34234;SDS011;20500;49.856;20.290;2024-03-08T04:12:25;29.80;;;19.40;;
34234;SDS011;20500;49.856;20.290;2024-03-08T04:15:31;26.80;;;17.90;;
34234;SDS011;20500;49.856;20.290;2024-03-08T04:18:37;30.00;;;18.90;;
34234;SDS011;20500;49.856;20.290;2024-03-08T04:21:43;27.70;;;17.80;;
34234;SDS011;20500;49.856;20.290;2024-03-08T04:24:48;29.10;;;19.80;;
34234;SDS011;20500;49.856;20.290;2024-03-08T04:27:53;30.00;;;19.90;;
34234;SDS011;20500;49.856;20.290;2024-03-08T04:30:59;28.70;;;19.50;;
34234;SDS011;20500;49.856;20.290;2024-03-08T04:34:05;29.10;;;19.50;;
34234;SDS011;20500;49.856;20.290;2024-03-08T04:37:11;32.10;;;20.10;;
34234;SDS011;20500;49.856;20.290;2024-03-08T04:40:17;28.60;;;18.40;;
34234;SDS011;20500;49.856;20.290;2024-03-08T04:43:22;28.90;;;19.30;;
34234;SDS011;20500;49.856;20.290;2024-03-08T04:46:29;28.50;;;18.40;;
34234;SDS011;20500;49.856;20.290;2024-03-08T04:49:35;30.00;;;19.50;;
34234;SDS011;20500;49.856;20.290;2024-03-08T04:52:40;28.50;;;19.20;;
34234;SDS011;20500;49.856;20.290;2024-03-08T04:55:45;28.60;;;18.20;;
34234;SDS011;20500;49.856;20.290;2024-03-08T04:58:51;30.00;;;19.50;;
34234;SDS011;20500;49.856;20.290;2024-03-08T05:01:57;25.80;;;17.70;;
34234;SDS011;20500;49.856;20.290;2024-03-08T05:05:03;28.40;;;18.20;;
34234;SDS011;20500;49.856;20.290;2024-03-08T05:08:09;27.90;;;18.10;;
34234;SDS011;20500;49.856;20.290;2024-03-08T05:11:15;27.90;;;19.70;;
34234;SDS011;20500;49.856;20.290;2024-03-08T05:14:20;28.10;;;18.70;;
34234;SDS011;20500;49.856;20.290;2024-03-08T05:17:27;29.20;;;18.60;;
34234;SDS011;20500;49.856;20.290;2024-03-08T05:20:33;29.00;;;19.20;;
34234;SDS011;20500;49.856;20.290;2024-03-08T05:23:40;28.60;;;19.10;;
34234;SDS011;20500;49.856;20.290;2024-03-08T05:26:45;27.70;;;19.40;;
34234;SDS011;20500;49.856;20.290;2024-03-08T05:29:51;27.60;;;18.60;;
34234;SDS011;20500;49.856;20.290;2024-03-08T05:32:57;30.40;;;20.00;;
34234;SDS011;20500;49.856;20.290;2024-03-08T05:36:03;26.40;;;18.10;;
34234;SDS011;20500;49.856;20.290;2024-03-08T05:39:09;27.40;;;18.70;;
34234;SDS011;20500;49.856;20.290;2024-03-08T05:45:19;28.80;;;19.40;;
34234;SDS011;20500;49.856;20.290;2024-03-08T05:48:25;31.80;;;20.70;;
34234;SDS011;20500;49.856;20.290;2024-03-08T05:51:31;30.30;;;19.70;;
34234;SDS011;20500;49.856;20.290;2024-03-08T05:57:41;29.50;;;20.00;;
34234;SDS011;20500;49.856;20.290;2024-03-08T06:00:46;27.10;;;17.70;;
34234;SDS011;20500;49.856;20.290;2024-03-08T06:03:55;27.10;;;18.10;;
34234;SDS011;20500;49.856;20.290;2024-03-08T06:10:07;30.10;;;19.40;;
34234;SDS011;20500;49.856;20.290;2024-03-08T06:13:15;28.00;;;18.50;;
34234;SDS011;20500;49.856;20.290;2024-03-08T06:16:20;28.40;;;18.90;;
34234;SDS011;20500;49.856;20.290;2024-03-08T06:19:26;30.20;;;19.10;;
34234;SDS011;20500;49.856;20.290;2024-03-08T06:22:31;28.20;;;19.30;;
34234;SDS011;20500;49.856;20.290;2024-03-08T06:25:36;29.40;;;20.00;;
34234;SDS011;20500;49.856;20.290;2024-03-08T06:28:42;32.00;;;19.30;;
34234;SDS011;20500;49.856;20.290;2024-03-08T06:31:47;30.00;;;19.30;;
34234;SDS011;20500;49.856;20.290;2024-03-08T06:34:56;28.60;;;18.80;;
34234;SDS011;20500;49.856;20.290;2024-03-08T06:38:01;30.10;;;19.50;;
34234;SDS011;20500;49.856;20.290;2024-03-08T06:41:07;30.10;;;19.40;;
34234;SDS011;20500;49.856;20.290;2024-03-08T06:44:18;29.30;;;18.80;;
34234;SDS011;20500;49.856;20.290;2024-03-08T06:47:24;27.90;;;18.60;;
34234;SDS011;20500;49.856;20.290;2024-03-08T06:50:30;27.70;;;17.60;;
34234;SDS011;20500;49.856;20.290;2024-03-08T06:53:35;26.10;;;17.80;;
34234;SDS011;20500;49.856;20.290;2024-03-08T06:56:41;24.60;;;16.80;;
34234;SDS011;20500;49.856;20.290;2024-03-08T06:59:47;29.30;;;19.00;;
34234;SDS011;20500;49.856;20.290;2024-03-08T07:02:53;27.80;;;19.30;;
34234;SDS011;20500;49.856;20.290;2024-03-08T07:06:00;28.30;;;20.30;;
34234;SDS011;20500;49.856;20.290;2024-03-08T07:09:10;27.60;;;18.90;;
34234;SDS011;20500;49.856;20.290;2024-03-08T07:12:16;28.20;;;18.90;;
34234;SDS011;20500;49.856;20.290;2024-03-08T07:15:23;28.40;;;18.70;;
34234;SDS011;20500;49.856;20.290;2024-03-08T07:18:30;27.00;;;17.40;;
34234;SDS011;20500;49.856;20.290;2024-03-08T07:21:37;27.50;;;18.70;;
34234;SDS011;20500;49.856;20.290;2024-03-08T07:24:42;28.60;;;19.20;;
34234;SDS011;20500;49.856;20.290;2024-03-08T07:28:07;26.20;;;18.10;;
34234;SDS011;20500;49.856;20.290;2024-03-08T07:31:15;28.00;;;18.50;;
34234;SDS011;20500;49.856;20.290;2024-03-08T07:34:29;26.90;;;18.50;;
34234;SDS011;20500;49.856;20.290;2024-03-08T07:37:36;29.20;;;18.10;;
34234;SDS011;20500;49.856;20.290;2024-03-08T07:40:42;26.70;;;18.50;;
34234;SDS011;20500;49.856;20.290;2024-03-08T07:43:48;26.00;;;18.10;;
34234;SDS011;20500;49.856;20.290;2024-03-08T07:46:54;27.20;;;17.20;;
34234;SDS011;20500;49.856;20.290;2024-03-08T07:50:00;25.50;;;17.90;;
34234;SDS011;20500;49.856;20.290;2024-03-08T07:56:11;32.80;;;20.30;;
34234;SDS011;20500;49.856;20.290;2024-03-08T07:59:19;28.60;;;18.40;;
34234;SDS011;20500;49.856;20.290;2024-03-08T08:02:24;29.60;;;19.60;;
34234;SDS011;20500;49.856;20.290;2024-03-08T08:05:30;27.80;;;19.40;;
34234;SDS011;20500;49.856;20.290;2024-03-08T08:08:38;31.30;;;20.00;;
34234;SDS011;20500;49.856;20.290;2024-03-08T08:14:48;31.40;;;19.80;;
34234;SDS011;20500;49.856;20.290;2024-03-08T08:17:54;28.20;;;19.90;;
34234;SDS011;20500;49.856;20.290;2024-03-08T08:20:59;30.60;;;19.10;;
34234;SDS011;20500;49.856;20.290;2024-03-08T08:24:06;28.50;;;18.50;;
34234;SDS011;20500;49.856;20.290;2024-03-08T08:30:17;29.70;;;20.70;;
34234;SDS011;20500;49.856;20.290;2024-03-08T08:36:28;29.80;;;18.10;;
34234;SDS011;20500;49.856;20.290;2024-03-08T08:39:34;26.20;;;18.00;;
34234;SDS011;20500;49.856;20.290;2024-03-08T08:42:40;27.90;;;18.30;;
34234;SDS011;20500;49.856;20.290;2024-03-08T08:45:46;29.20;;;18.90;;
34234;SDS011;20500;49.856;20.290;2024-03-08T08:48:53;27.00;;;18.50;;
34234;SDS011;20500;49.856;20.290;2024-03-08T08:51:59;29.30;;;19.10;;
34234;SDS011;20500;49.856;20.290;2024-03-08T08:55:18;27.70;;;18.50;;
34234;SDS011;20500;49.856;20.290;2024-03-08T08:58:28;28.00;;;18.90;;
34234;SDS011;20500;49.856;20.290;2024-03-08T09:01:34;27.30;;;17.70;;
34234;SDS011;20500;49.856;20.290;2024-03-08T09:04:40;27.40;;;18.80;;
34234;SDS011;20500;49.856;20.290;2024-03-08T09:07:46;27.00;;;18.80;;
34234;SDS011;20500;49.856;20.290;2024-03-08T09:10:52;28.70;;;18.90;;
34234;SDS011;20500;49.856;20.290;2024-03-08T09:13:58;26.90;;;18.30;;
34234;SDS011;20500;49.856;20.290;2024-03-08T09:20:10;26.40;;;17.90;;
34234;SDS011;20500;49.856;20.290;2024-03-08T09:23:20;27.00;;;17.50;;
34234;SDS011;20500;49.856;20.290;2024-03-08T09:26:26;27.20;;;19.00;;
34234;SDS011;20500;49.856;20.290;2024-03-08T09:29:32;27.50;;;18.20;;
34234;SDS011;20500;49.856;20.290;2024-03-08T09:32:38;29.40;;;18.10;;
34234;SDS011;20500;49.856;20.290;2024-03-08T09:35:44;27.00;;;18.70;;
34234;SDS011;20500;49.856;20.290;2024-03-08T09:38:50;27.80;;;18.90;;
34234;SDS011;20500;49.856;20.290;2024-03-08T09:41:56;27.50;;;17.90;;
34234;SDS011;20500;49.856;20.290;2024-03-08T09:45:01;25.80;;;17.50;;
34234;SDS011;20500;49.856;20.290;2024-03-08T09:48:09;25.50;;;16.60;;
34234;SDS011;20500;49.856;20.290;2024-03-08T09:51:16;25.20;;;16.80;;
34234;SDS011;20500;49.856;20.290;2024-03-08T09:54:26;28.50;;;19.00;;
34234;SDS011;20500;49.856;20.290;2024-03-08T09:57:32;27.10;;;18.60;;
34234;SDS011;20500;49.856;20.290;2024-03-08T10:00:39;27.40;;;18.80;;
34234;SDS011;20500;49.856;20.290;2024-03-08T10:03:45;27.30;;;19.70;;
34234;SDS011;20500;49.856;20.290;2024-03-08T10:06:52;29.40;;;18.20;;
34234;SDS011;20500;49.856;20.290;2024-03-08T10:10:00;26.90;;;17.80;;
34234;SDS011;20500;49.856;20.290;2024-03-08T10:13:06;29.20;;;18.60;;
34234;SDS011;20500;49.856;20.290;2024-03-08T10:16:12;30.80;;;19.70;;
34234;SDS011;20500;49.856;20.290;2024-03-08T10:19:19;29.20;;;20.20;;
34234;SDS011;20500;49.856;20.290;2024-03-08T10:22:29;26.80;;;18.40;;
34234;SDS011;20500;49.856;20.290;2024-03-08T10:25:35;27.90;;;19.30;;
34234;SDS011;20500;49.856;20.290;2024-03-08T10:28:42;28.60;;;18.60;;
34234;SDS011;20500;49.856;20.290;2024-03-08T10:31:48;29.40;;;19.30;;
34234;SDS011;20500;49.856;20.290;2024-03-08T10:34:54;26.60;;;18.90;;
34234;SDS011;20500;49.856;20.290;2024-03-08T10:38:00;28.00;;;19.40;;
34234;SDS011;20500;49.856;20.290;2024-03-08T10:41:10;28.20;;;19.60;;
34234;SDS011;20500;49.856;20.290;2024-03-08T10:44:18;29.50;;;18.70;;
34234;SDS011;20500;49.856;20.290;2024-03-08T10:47:40;29.10;;;19.70;;
34234;SDS011;20500;49.856;20.290;2024-03-08T10:50:49;30.30;;;19.80;;
34234;SDS011;20500;49.856;20.290;2024-03-08T10:53:55;31.60;;;20.00;;
34234;SDS011;20500;49.856;20.290;2024-03-08T10:57:06;26.10;;;18.20;;
34234;SDS011;20500;49.856;20.290;2024-03-08T11:00:12;24.70;;;16.70;;
34234;SDS011;20500;49.856;20.290;2024-03-08T11:06:52;29.00;;;20.00;;
34234;SDS011;20500;49.856;20.290;2024-03-08T11:10:06;29.10;;;18.60;;
34234;SDS011;20500;49.856;20.290;2024-03-08T11:13:35;28.00;;;18.90;;
34234;SDS011;20500;49.856;20.290;2024-03-08T11:16:43;27.20;;;18.70;;
34234;SDS011;20500;49.856;20.290;2024-03-08T11:19:49;30.80;;;20.70;;
34234;SDS011;20500;49.856;20.290;2024-03-08T11:22:59;32.20;;;20.10;;
34234;SDS011;20500;49.856;20.290;2024-03-08T11:26:19;29.10;;;20.30;;
34234;SDS011;20500;49.856;20.290;2024-03-08T11:29:34;27.20;;;18.40;;
34234;SDS011;20500;49.856;20.290;2024-03-08T11:32:45;28.00;;;19.40;;
34234;SDS011;20500;49.856;20.290;2024-03-08T11:35:51;27.30;;;18.20;;
34234;SDS011;20500;49.856;20.290;2024-03-08T11:39:01;26.80;;;19.10;;
34234;SDS011;20500;49.856;20.290;2024-03-08T11:42:17;26.50;;;18.80;;
34234;SDS011;20500;49.856;20.290;2024-03-08T11:45:23;28.30;;;20.10;;
34234;SDS011;20500;49.856;20.290;2024-03-08T11:48:29;27.90;;;19.90;;
34234;SDS011;20500;49.856;20.290;2024-03-08T11:51:34;27.00;;;18.80;;
34234;SDS011;20500;49.856;20.290;2024-03-08T11:54:40;26.90;;;18.60;;
34234;SDS011;20500;49.856;20.290;2024-03-08T11:57:47;26.80;;;19.40;;
34234;SDS011;20500;49.856;20.290;2024-03-08T12:00:59;25.10;;;17.60;;
34234;SDS011;20500;49.856;20.290;2024-03-08T12:04:11;24.40;;;17.20;;
34234;SDS011;20500;49.856;20.290;2024-03-08T12:07:16;25.40;;;17.40;;
34234;SDS011;20500;49.856;20.290;2024-03-08T12:10:23;23.80;;;16.70;;
34234;SDS011;20500;49.856;20.290;2024-03-08T12:13:29;24.70;;;16.90;;
34234;SDS011;20500;49.856;20.290;2024-03-08T12:16:37;23.70;;;17.00;;
34234;SDS011;20500;49.856;20.290;2024-03-08T12:19:47;23.30;;;16.30;;
34234;SDS011;20500;49.856;20.290;2024-03-08T12:22:52;25.60;;;17.10;;
34234;SDS011;20500;49.856;20.290;2024-03-08T12:25:59;25.10;;;16.20;;
34234;SDS011;20500;49.856;20.290;2024-03-08T12:29:17;25.00;;;17.50;;
34234;SDS011;20500;49.856;20.290;2024-03-08T12:32:26;26.50;;;18.50;;
34234;SDS011;20500;49.856;20.290;2024-03-08T12:35:32;27.90;;;18.40;;
34234;SDS011;20500;49.856;20.290;2024-03-08T12:38:37;27.10;;;18.80;;
34234;SDS011;20500;49.856;20.290;2024-03-08T12:41:43;26.30;;;18.70;;
34234;SDS011;20500;49.856;20.290;2024-03-08T12:44:49;27.80;;;18.60;;
34234;SDS011;20500;49.856;20.290;2024-03-08T12:47:55;26.40;;;17.50;;
34234;SDS011;20500;49.856;20.290;2024-03-08T12:51:02;26.10;;;18.20;;
34234;SDS011;20500;49.856;20.290;2024-03-08T12:54:10;27.80;;;18.50;;
34234;SDS011;20500;49.856;20.290;2024-03-08T12:57:16;27.70;;;18.00;;
34234;SDS011;20500;49.856;20.290;2024-03-08T13:00:21;27.00;;;18.90;;
34234;SDS011;20500;49.856;20.290;2024-03-08T13:03:27;24.50;;;17.80;;
34234;SDS011;20500;49.856;20.290;2024-03-08T13:09:37;25.60;;;18.30;;
34234;SDS011;20500;49.856;20.290;2024-03-08T13:12:45;27.40;;;18.10;;
34234;SDS011;20500;49.856;20.290;2024-03-08T13:15:56;27.00;;;17.80;;
34234;SDS011;20500;49.856;20.290;2024-03-08T13:19:04;26.60;;;19.40;;
34234;SDS011;20500;49.856;20.290;2024-03-08T13:22:12;29.10;;;20.20;;
34234;SDS011;20500;49.856;20.290;2024-03-08T13:25:21;28.40;;;20.10;;
34234;SDS011;20500;49.856;20.290;2024-03-08T13:28:29;29.50;;;21.00;;
34234;SDS011;20500;49.856;20.290;2024-03-08T13:31:41;28.00;;;19.70;;
34234;SDS011;20500;49.856;20.290;2024-03-08T13:34:48;28.10;;;19.80;;
34234;SDS011;20500;49.856;20.290;2024-03-08T13:37:57;26.70;;;19.00;;
34234;SDS011;20500;49.856;20.290;2024-03-08T13:41:05;29.50;;;20.30;;
34234;SDS011;20500;49.856;20.290;2024-03-08T13:44:11;26.90;;;19.90;;
34234;SDS011;20500;49.856;20.290;2024-03-08T13:47:17;27.70;;;19.30;;
34234;SDS011;20500;49.856;20.290;2024-03-08T13:50:22;27.10;;;19.40;;
34234;SDS011;20500;49.856;20.290;2024-03-08T13:53:29;29.80;;;20.10;;
34234;SDS011;20500;49.856;20.290;2024-03-08T13:59:39;28.70;;;19.50;;
34234;SDS011;20500;49.856;20.290;2024-03-08T14:02:45;26.80;;;20.50;;
34234;SDS011;20500;49.856;20.290;2024-03-08T14:05:51;27.40;;;19.70;;
34234;SDS011;20500;49.856;20.290;2024-03-08T14:08:58;28.80;;;20.00;;
34234;SDS011;20500;49.856;20.290;2024-03-08T14:12:05;28.90;;;19.80;;
34234;SDS011;20500;49.856;20.290;2024-03-08T14:15:11;27.70;;;19.60;;
34234;SDS011;20500;49.856;20.290;2024-03-08T14:18:18;29.40;;;19.00;;
34234;SDS011;20500;49.856;20.290;2024-03-08T14:21:23;29.30;;;19.70;;
34234;SDS011;20500;49.856;20.290;2024-03-08T14:24:29;28.10;;;19.70;;
34234;SDS011;20500;49.856;20.290;2024-03-08T14:27:38;28.40;;;19.70;;
34234;SDS011;20500;49.856;20.290;2024-03-08T14:30:46;29.50;;;19.40;;
34234;SDS011;20500;49.856;20.290;2024-03-08T14:36:57;27.10;;;19.60;;
34234;SDS011;20500;49.856;20.290;2024-03-08T14:40:07;29.70;;;20.30;;
34234;SDS011;20500;49.856;20.290;2024-03-08T14:43:13;27.60;;;20.40;;
34234;SDS011;20500;49.856;20.290;2024-03-08T14:46:24;27.40;;;20.00;;
34234;SDS011;20500;49.856;20.290;2024-03-08T14:49:29;29.90;;;20.90;;
34234;SDS011;20500;49.856;20.290;2024-03-08T14:52:39;28.20;;;20.30;;
34234;SDS011;20500;49.856;20.290;2024-03-08T14:55:45;28.30;;;20.70;;
34234;SDS011;20500;49.856;20.290;2024-03-08T14:58:51;28.60;;;20.00;;
34234;SDS011;20500;49.856;20.290;2024-03-08T15:01:58;30.40;;;20.40;;
34234;SDS011;20500;49.856;20.290;2024-03-08T15:05:05;28.90;;;20.20;;
34234;SDS011;20500;49.856;20.290;2024-03-08T15:08:14;27.80;;;19.90;;
34234;SDS011;20500;49.856;20.290;2024-03-08T15:11:27;27.60;;;20.40;;
34234;SDS011;20500;49.856;20.290;2024-03-08T15:14:32;27.80;;;19.70;;
34234;SDS011;20500;49.856;20.290;2024-03-08T15:17:42;30.60;;;21.00;;
34234;SDS011;20500;49.856;20.290;2024-03-08T15:20:50;31.80;;;21.50;;
34234;SDS011;20500;49.856;20.290;2024-03-08T15:23:55;34.30;;;22.50;;
34234;SDS011;20500;49.856;20.290;2024-03-08T15:27:00;32.80;;;23.10;;
34234;SDS011;20500;49.856;20.290;2024-03-08T15:30:09;29.80;;;20.40;;
34234;SDS011;20500;49.856;20.290;2024-03-08T15:33:16;30.00;;;20.70;;
34234;SDS011;20500;49.856;20.290;2024-03-08T15:36:27;29.90;;;21.50;;
34234;SDS011;20500;49.856;20.290;2024-03-08T15:39:33;30.90;;;20.70;;
34234;SDS011;20500;49.856;20.290;2024-03-08T15:42:41;30.50;;;21.50;;
34234;SDS011;20500;49.856;20.290;2024-03-08T15:45:46;30.30;;;20.60;;
34234;SDS011;20500;49.856;20.290;2024-03-08T15:48:52;32.10;;;21.10;;
34234;SDS011;20500;49.856;20.290;2024-03-08T15:51:58;29.90;;;20.90;;
34234;SDS011;20500;49.856;20.290;2024-03-08T15:55:05;29.30;;;20.90;;
34234;SDS011;20500;49.856;20.290;2024-03-08T15:58:11;30.20;;;21.70;;
34234;SDS011;20500;49.856;20.290;2024-03-08T16:01:16;31.70;;;22.20;;
34234;SDS011;20500;49.856;20.290;2024-03-08T16:04:23;33.20;;;22.30;;
34234;SDS011;20500;49.856;20.290;2024-03-08T16:10:33;32.90;;;21.90;;
34234;SDS011;20500;49.856;20.290;2024-03-08T16:13:42;32.20;;;22.10;;
34234;SDS011;20500;49.856;20.290;2024-03-08T16:16:48;32.70;;;22.70;;
34234;SDS011;20500;49.856;20.290;2024-03-08T16:22:59;31.90;;;22.40;;
34234;SDS011;20500;49.856;20.290;2024-03-08T16:26:04;32.00;;;22.60;;
34234;SDS011;20500;49.856;20.290;2024-03-08T16:29:12;34.60;;;22.60;;
34234;SDS011;20500;49.856;20.290;2024-03-08T16:32:19;34.00;;;22.50;;
34234;SDS011;20500;49.856;20.290;2024-03-08T16:35:24;33.50;;;23.10;;
34234;SDS011;20500;49.856;20.290;2024-03-08T16:38:30;33.00;;;22.20;;
34234;SDS011;20500;49.856;20.290;2024-03-08T16:41:39;41.80;;;28.30;;
34234;SDS011;20500;49.856;20.290;2024-03-08T16:44:45;47.40;;;30.80;;
34234;SDS011;20500;49.856;20.290;2024-03-08T16:47:50;48.60;;;32.40;;
34234;SDS011;20500;49.856;20.290;2024-03-08T16:54:00;50.00;;;34.40;;
34234;SDS011;20500;49.856;20.290;2024-03-08T16:57:06;54.40;;;36.50;;
34234;SDS011;20500;49.856;20.290;2024-03-08T17:00:17;51.60;;;36.70;;
34234;SDS011;20500;49.856;20.290;2024-03-08T17:03:25;47.20;;;32.00;;
34234;SDS011;20500;49.856;20.290;2024-03-08T17:06:31;41.60;;;27.90;;
34234;SDS011;20500;49.856;20.290;2024-03-08T17:09:37;41.50;;;27.50;;
34234;SDS011;20500;49.856;20.290;2024-03-08T17:12:44;41.80;;;28.00;;
34234;SDS011;20500;49.856;20.290;2024-03-08T17:15:52;43.60;;;28.70;;
34234;SDS011;20500;49.856;20.290;2024-03-08T17:18:58;38.30;;;25.20;;
34234;SDS011;20500;49.856;20.290;2024-03-08T17:22:05;36.60;;;23.50;;
34234;SDS011;20500;49.856;20.290;2024-03-08T17:25:10;36.20;;;24.70;;
34234;SDS011;20500;49.856;20.290;2024-03-08T17:28:17;37.20;;;24.70;;
34234;SDS011;20500;49.856;20.290;2024-03-08T17:31:23;37.00;;;24.10;;
34234;SDS011;20500;49.856;20.290;2024-03-08T17:34:30;39.70;;;26.30;;
34234;SDS011;20500;49.856;20.290;2024-03-08T17:37:36;43.50;;;28.00;;
34234;SDS011;20500;49.856;20.290;2024-03-08T17:43:48;49.70;;;30.90;;
34234;SDS011;20500;49.856;20.290;2024-03-08T17:49:58;44.00;;;28.20;;
34234;SDS011;20500;49.856;20.290;2024-03-08T17:53:04;51.60;;;33.90;;
34234;SDS011;20500;49.856;20.290;2024-03-08T17:56:10;45.50;;;29.10;;
34234;SDS011;20500;49.856;20.290;2024-03-08T17:59:16;50.50;;;33.20;;
34234;SDS011;20500;49.856;20.290;2024-03-08T18:02:22;55.00;;;33.60;;
34234;SDS011;20500;49.856;20.290;2024-03-08T18:05:28;55.00;;;34.60;;
34234;SDS011;20500;49.856;20.290;2024-03-08T18:08:35;61.50;;;38.50;;
34234;SDS011;20500;49.856;20.290;2024-03-08T18:11:40;59.30;;;37.10;;
34234;SDS011;20500;49.856;20.290;2024-03-08T18:14:46;54.20;;;33.50;;
34234;SDS011;20500;49.856;20.290;2024-03-08T18:17:51;46.50;;;29.60;;
34234;SDS011;20500;49.856;20.290;2024-03-08T18:20:58;49.10;;;30.70;;
34234;SDS011;20500;49.856;20.290;2024-03-08T18:24:08;52.00;;;32.80;;
34234;SDS011;20500;49.856;20.290;2024-03-08T18:27:15;60.50;;;38.10;;
34234;SDS011;20500;49.856;20.290;2024-03-08T18:30:21;106.80;;;60.10;;
34234;SDS011;20500;49.856;20.290;2024-03-08T18:33:26;153.10;;;84.70;;
34234;SDS011;20500;49.856;20.290;2024-03-08T18:36:35;269.80;;;137.70;;
34234;SDS011;20500;49.856;20.290;2024-03-08T18:42:45;272.40;;;129.10;;
34234;SDS011;20500;49.856;20.290;2024-03-08T18:45:51;240.10;;;119.20;;
34234;SDS011;20500;49.856;20.290;2024-03-08T18:48:57;171.40;;;85.70;;
34234;SDS011;20500;49.856;20.290;2024-03-08T18:52:03;152.10;;;74.50;;
34234;SDS011;20500;49.856;20.290;2024-03-08T18:55:09;134.90;;;70.50;;
34234;SDS011;20500;49.856;20.290;2024-03-08T18:58:15;134.50;;;70.20;;
34234;SDS011;20500;49.856;20.290;2024-03-08T19:01:32;108.70;;;60.50;;
34234;SDS011;20500;49.856;20.290;2024-03-08T19:04:39;94.40;;;54.40;;
34234;SDS011;20500;49.856;20.290;2024-03-08T19:07:45;81.10;;;49.60;;